createdAt,value
2019-02-05T00:00:35.914Z,101463.20
2019-02-05T00:03:02.775Z,101465.74
2019-02-05T00:05:29.597Z,101462.97
2019-02-05T00:07:56.458Z,101454.19
2019-02-05T00:10:23.286Z,101464.98
2019-02-05T00:12:50.142Z,101466.92
2019-02-05T00:15:16.966Z,101473.20
2019-02-05T00:17:43.814Z,101470.70
2019-02-05T00:20:10.646Z,101479.62
2019-02-05T00:22:37.490Z,101481.64
2019-02-05T00:25:04.414Z,101489.82
2019-02-05T00:27:31.262Z,101475.62
2019-02-05T00:29:58.098Z,101476.72
2019-02-05T00:32:25.201Z,101481.68
2019-02-05T00:34:52.014Z,101478.13
2019-02-05T00:37:18.861Z,101481.37
2019-02-05T00:39:45.705Z,101487.44
2019-02-05T00:42:12.554Z,101485.73
2019-02-05T00:44:39.377Z,101480.63
2019-02-05T00:47:06.243Z,101482.62
2019-02-05T00:49:33.086Z,101476.31
2019-02-05T00:51:59.970Z,101470.90
2019-02-05T00:54:26.798Z,101450.30
2019-02-05T00:56:53.654Z,101453.59
2019-02-05T00:59:20.482Z,101449.66
2019-02-05T01:01:47.352Z,101456.07
2019-02-05T01:04:14.182Z,101458.69
2019-02-05T01:06:41.014Z,101452.44
2019-02-05T01:09:08.310Z,101437.18
2019-02-05T01:11:35.149Z,101443.64
2019-02-05T01:14:02.009Z,101450.39
2019-02-05T01:16:28.846Z,101445.22
2019-02-05T01:18:55.699Z,101436.23
2019-02-05T01:21:22.531Z,101434.95
2019-02-05T01:23:49.369Z,101430.89
2019-02-05T01:26:16.193Z,101444.92
2019-02-05T01:28:43.033Z,101441.26
2019-02-05T01:31:09.862Z,101444.75
2019-02-05T01:33:36.706Z,101444.66
2019-02-05T01:36:03.540Z,101446.55
2019-02-05T01:38:30.383Z,101445.59
2019-02-05T01:40:57.218Z,101445.48
2019-02-05T01:43:24.065Z,101438.34
2019-02-05T01:45:50.893Z,101437.08
2019-02-05T01:48:17.749Z,101437.97
2019-02-05T01:50:44.590Z,101428.89
2019-02-05T01:53:11.437Z,101424.86
2019-02-05T01:55:38.266Z,101429.45
2019-02-05T01:58:05.114Z,101423.86
2019-02-05T02:00:34.051Z,101416.80
2019-02-05T02:03:00.898Z,101421.64
2019-02-05T02:05:27.767Z,101416.80
2019-02-05T02:07:54.616Z,101397.34
2019-02-05T02:10:23.189Z,101394.92
2019-02-05T02:12:50.050Z,101389.30
2019-02-05T02:15:17.010Z,101395.52
2019-02-05T02:17:43.906Z,101406.59
2019-02-05T02:20:12.714Z,101405.27
2019-02-05T02:22:39.649Z,101411.95
2019-02-05T02:25:07.206Z,101413.72
2019-02-05T02:27:34.037Z,101416.50
2019-02-05T02:30:00.902Z,101410.84
2019-02-05T02:32:27.717Z,101413.34
2019-02-05T02:34:54.566Z,101412.51
2019-02-05T02:37:21.401Z,101420.90
2019-02-05T02:39:48.242Z,101424.99
2019-02-05T02:42:15.065Z,101420.64
2019-02-05T02:44:41.914Z,101417.98
2019-02-05T02:47:08.750Z,101414.73
2019-02-05T02:49:35.717Z,101405.61
2019-02-05T02:52:02.559Z,101411.02
2019-02-05T02:54:29.414Z,101423.91
2019-02-05T02:57:04.609Z,101433.09
2019-02-05T02:59:23.099Z,101421.72
2019-02-05T03:01:49.932Z,101414.73
2019-02-05T03:04:16.775Z,101418.98
2019-02-05T03:06:43.609Z,101414.23
2019-02-05T03:09:10.435Z,101423.33
2019-02-05T03:11:37.306Z,101426.30
2019-02-05T03:14:04.459Z,101430.70
2019-02-05T03:16:31.348Z,101430.06
2019-02-05T03:18:58.187Z,101428.83
2019-02-05T03:21:25.087Z,101421.07
2019-02-05T03:23:51.929Z,101423.59
2019-02-05T03:26:18.760Z,101431.92
2019-02-05T03:28:45.608Z,101439.30
2019-02-05T03:31:12.469Z,101424.81
2019-02-05T03:33:39.300Z,101431.78
2019-02-05T03:36:06.126Z,101428.44
2019-02-05T03:38:32.971Z,101427.17
2019-02-05T03:41:02.226Z,101430.94
2019-02-05T03:43:29.199Z,101426.14
2019-02-05T03:45:56.022Z,101435.09
2019-02-05T03:48:22.861Z,101428.75
2019-02-05T03:50:49.742Z,101426.32
2019-02-05T03:53:17.306Z,101421.83
2019-02-05T03:56:08.639Z,101418.65
2019-02-05T03:58:54.595Z,101429.60
2019-02-05T04:01:47.574Z,101423.42
2019-02-05T04:04:35.933Z,101423.77
2019-02-05T04:07:16.592Z,101435.71
2019-02-05T04:10:05.073Z,101431.48
2019-02-05T04:12:57.144Z,101436.16
2019-02-05T04:15:39.982Z,101430.83
2019-02-05T04:18:18.529Z,101432.29
2019-02-05T04:21:18.995Z,101426.11
2019-02-05T04:24:15.216Z,101433.76
2019-02-05T04:27:07.411Z,101441.72
2019-02-05T04:30:02.790Z,101446.73
2019-02-05T04:32:43.534Z,101440.06
2019-02-05T04:35:25.925Z,101444.11
2019-02-05T04:38:27.901Z,101441.67
2019-02-05T04:41:04.515Z,101440.67
2019-02-05T04:44:01.618Z,101438.45
2019-02-05T04:46:58.278Z,101443.92
2019-02-05T04:49:53.518Z,101444.28
2019-02-05T04:52:45.758Z,101441.88
2019-02-05T04:55:40.559Z,101449.30
2019-02-05T04:58:30.618Z,101448.58
2019-02-05T05:01:43.643Z,101447.26
2019-02-05T05:04:26.350Z,101451.45
2019-02-05T05:07:28.721Z,101460.47
2019-02-05T05:09:57.566Z,101468.41
2019-02-05T05:12:25.522Z,101464.44
2019-02-05T05:14:52.388Z,101464.84
2019-02-05T05:17:19.202Z,101466.89
2019-02-05T05:19:46.166Z,101470.97
2019-02-05T05:22:12.996Z,101471.02
2019-02-05T05:24:39.997Z,101471.32
2019-02-05T05:27:06.690Z,101473.43
2019-02-05T05:29:33.570Z,101473.06
2019-02-05T05:32:00.434Z,101479.05
2019-02-05T05:34:27.283Z,101482.23
2019-02-05T05:36:53.298Z,101480.79
2019-02-05T05:39:20.171Z,101476.63
2019-02-05T05:41:47.002Z,101474.30
2019-02-05T05:44:13.843Z,101472.64
2019-02-05T05:46:40.669Z,101474.48
2019-02-05T05:49:07.522Z,101481.53
2019-02-05T05:51:34.349Z,101482.91
2019-02-05T05:54:01.190Z,101477.38
2019-02-05T05:56:28.654Z,101482.86
2019-02-05T05:58:55.497Z,101469.99
2019-02-05T06:01:22.314Z,101474.33
2019-02-05T06:03:49.178Z,101473.59
2019-02-05T06:06:16.002Z,101475.20
2019-02-05T06:08:42.826Z,101471.63
2019-02-05T06:11:09.718Z,101470.86
2019-02-05T06:13:36.546Z,101480.02
2019-02-05T06:16:03.410Z,101479.02
2019-02-05T06:18:30.247Z,101481.86
2019-02-05T06:20:57.096Z,101478.73
2019-02-05T06:23:23.928Z,101480.91
2019-02-05T06:25:50.768Z,101488.78
2019-02-05T06:28:17.597Z,101489.78
2019-02-05T06:30:44.436Z,101481.92
2019-02-05T06:33:11.253Z,101487.91
2019-02-05T06:35:38.094Z,101483.26
2019-02-05T06:38:04.929Z,101479.62
2019-02-05T06:40:31.832Z,101494.05
2019-02-05T06:42:58.649Z,101495.80
2019-02-05T06:45:25.502Z,101500.50
2019-02-05T06:47:52.335Z,101519.23
2019-02-05T06:50:19.187Z,101524.69
2019-02-05T06:52:46.013Z,101522.41
2019-02-05T06:55:12.897Z,101532.18
2019-02-05T06:57:39.728Z,101536.98
2019-02-05T07:00:10.271Z,101538.05
2019-02-05T07:02:37.107Z,101542.70
2019-02-05T07:05:05.310Z,101534.16
2019-02-05T07:07:32.130Z,101539.72
2019-02-05T07:09:58.974Z,101538.12
2019-02-05T07:12:25.882Z,101536.82
2019-02-05T07:14:52.717Z,101534.06
2019-02-05T07:17:19.537Z,101539.81
2019-02-05T07:19:46.376Z,101548.16
2019-02-05T07:22:13.217Z,101555.05
2019-02-05T07:24:40.092Z,101559.39
2019-02-05T07:27:06.918Z,101548.60
2019-02-05T07:29:33.763Z,101547.08
2019-02-05T07:32:00.577Z,101545.86
2019-02-05T07:34:27.427Z,101551.16
2019-02-05T07:36:54.246Z,101551.31
2019-02-05T07:39:21.071Z,101556.52
2019-02-05T07:41:47.991Z,101553.32
2019-02-05T07:44:14.742Z,101558.56
2019-02-05T07:46:41.577Z,101549.26
2019-02-05T07:49:08.406Z,101555.22
2019-02-05T07:51:35.275Z,101555.34
2019-02-05T07:54:02.130Z,101556.64
2019-02-05T07:56:28.970Z,101563.71
2019-02-05T07:58:55.858Z,101567.90
2019-02-05T08:01:22.687Z,101569.22
2019-02-05T08:03:49.537Z,101555.27
2019-02-05T08:06:16.383Z,101555.60
2019-02-05T08:08:43.218Z,101552.41
2019-02-05T08:11:10.074Z,101550.74
2019-02-05T08:13:36.902Z,101554.95
2019-02-05T08:16:03.778Z,101563.07
2019-02-05T08:18:30.742Z,101565.37
2019-02-05T08:20:57.593Z,101562.45
2019-02-05T08:23:24.420Z,101565.28
2019-02-05T08:25:51.315Z,101573.88
2019-02-05T08:28:18.185Z,101579.48
2019-02-05T08:30:46.525Z,101581.22
2019-02-05T08:33:13.430Z,101584.45
2019-02-05T08:35:40.196Z,101585.28
2019-02-05T08:38:07.103Z,101592.31
2019-02-05T08:40:34.097Z,101588.66
2019-02-05T08:43:00.926Z,101595.31
2019-02-05T08:45:28.471Z,101599.66
2019-02-05T08:47:55.338Z,101594.40
2019-02-05T08:50:23.732Z,101595.38
2019-02-05T08:52:50.571Z,101600.47
2019-02-05T08:55:18.231Z,101596.25
2019-02-05T08:57:45.113Z,101587.95
2019-02-05T09:00:16.538Z,101591.45
2019-02-05T09:02:43.413Z,101598.26
2019-02-05T09:05:10.250Z,101598.66
2019-02-05T09:07:37.097Z,101606.94
2019-02-05T09:10:05.306Z,101603.73
2019-02-05T09:12:32.146Z,101605.11
2019-02-05T09:14:58.983Z,101614.98
2019-02-05T09:17:25.834Z,101609.29
2019-02-05T09:19:52.654Z,101608.03
2019-02-05T09:22:19.599Z,101605.98
2019-02-05T09:24:46.432Z,101600.54
2019-02-05T09:27:13.326Z,101601.91
2019-02-05T09:29:40.118Z,101589.24
2019-02-05T09:32:06.966Z,101585.64
2019-02-05T09:34:33.798Z,101588.98
2019-02-05T09:37:00.674Z,101585.65
2019-02-05T09:39:27.516Z,101585.76
2019-02-05T09:41:54.366Z,101586.28
2019-02-05T09:44:21.204Z,101589.95
2019-02-05T09:46:48.069Z,101592.84
2019-02-05T09:49:14.905Z,101596.18
2019-02-05T09:51:41.791Z,101587.36
2019-02-05T09:54:08.598Z,101594.78
2019-02-05T09:56:35.454Z,101594.06
2019-02-05T09:59:02.279Z,101590.86
2019-02-05T10:01:29.118Z,101582.91
2019-02-05T10:03:55.961Z,101591.12
2019-02-05T10:06:22.802Z,101590.00
2019-02-05T10:08:49.643Z,101599.59
2019-02-05T10:11:16.497Z,101598.83
2019-02-05T10:13:43.370Z,101609.19
2019-02-05T10:16:10.202Z,101617.97
2019-02-05T10:18:37.058Z,101622.91
2019-02-05T10:21:04.395Z,101620.94
2019-02-05T10:23:31.238Z,101623.16
2019-02-05T10:25:58.070Z,101628.39
2019-02-05T10:28:24.922Z,101629.87
2019-02-05T10:30:51.760Z,101626.98
2019-02-05T10:33:18.618Z,101632.74
2019-02-05T10:35:45.461Z,101628.84
2019-02-05T10:38:12.313Z,101623.95
2019-02-05T10:40:39.149Z,101624.50
2019-02-05T10:43:06.452Z,101626.19
2019-02-05T10:45:33.287Z,101619.25
2019-02-05T10:48:00.135Z,101612.92
2019-02-05T10:50:26.961Z,101622.81
2019-02-05T10:52:53.801Z,101610.47
2019-02-05T10:55:20.655Z,101606.31
2019-02-05T10:57:47.548Z,101610.53
2019-02-05T11:00:19.414Z,101617.38
2019-02-05T11:02:46.501Z,101610.75
2019-02-05T11:05:15.554Z,101607.92
2019-02-05T11:07:42.406Z,101602.43
2019-02-05T11:10:09.443Z,101605.88
2019-02-05T11:12:36.302Z,101597.23
2019-02-05T11:15:04.195Z,101588.80
2019-02-05T11:17:31.036Z,101584.94
2019-02-05T11:19:57.879Z,101583.73
2019-02-05T11:22:24.727Z,101577.25
2019-02-05T11:24:51.554Z,101577.52
2019-02-05T11:27:18.401Z,101577.77
2019-02-05T11:29:45.318Z,101567.38
2019-02-05T11:32:12.202Z,101570.06
2019-02-05T11:34:39.038Z,101566.02
2019-02-05T11:37:05.902Z,101558.09
2019-02-05T11:39:32.734Z,101565.25
2019-02-05T11:41:59.591Z,101569.13
2019-02-05T11:44:26.422Z,101557.41
2019-02-05T11:46:53.245Z,101564.45
2019-02-05T11:49:20.106Z,101565.53
2019-02-05T11:51:46.933Z,101568.48
2019-02-05T11:54:13.778Z,101563.02
2019-02-05T11:56:40.666Z,101556.05
2019-02-05T11:59:07.522Z,101555.34
2019-02-05T12:01:38.879Z,101559.89
2019-02-05T12:04:02.229Z,101552.55
2019-02-05T12:06:29.074Z,101556.49
2019-02-05T12:08:55.961Z,101556.61
2019-02-05T12:11:22.802Z,101560.15
2019-02-05T12:13:49.651Z,101548.84
2019-02-05T12:16:16.496Z,101551.53
2019-02-05T12:18:43.383Z,101536.05
2019-02-05T12:21:10.211Z,101524.85
2019-02-05T12:23:37.064Z,101520.04
2019-02-05T12:26:03.891Z,101518.33
2019-02-05T12:28:30.809Z,101516.27
2019-02-05T12:30:57.570Z,101524.41
2019-02-05T12:33:24.426Z,101520.83
2019-02-05T12:35:51.591Z,101521.91
2019-02-05T12:38:18.574Z,101522.66
2019-02-05T12:40:45.424Z,101522.36
2019-02-05T12:43:12.265Z,101507.69
2019-02-05T12:45:40.532Z,101509.45
2019-02-05T12:48:09.627Z,101505.45
2019-02-05T12:50:36.771Z,101500.83
2019-02-05T12:53:04.410Z,101503.45
2019-02-05T12:55:31.381Z,101498.25
2019-02-05T12:57:58.412Z,101510.92
2019-02-05T13:00:34.818Z,101489.23
2019-02-05T13:03:01.672Z,101491.31
2019-02-05T13:05:28.498Z,101488.00
2019-02-05T13:07:55.350Z,101485.41
2019-02-05T13:10:24.902Z,101475.91
2019-02-05T13:12:51.742Z,101479.12
2019-02-05T13:15:18.618Z,101476.25
2019-02-05T13:17:45.453Z,101475.66
2019-02-05T13:20:17.346Z,101478.80
2019-02-05T13:22:44.314Z,101476.55
2019-02-05T13:25:14.464Z,101484.95
2019-02-05T13:27:41.287Z,101488.53
2019-02-05T13:30:09.230Z,101486.15
2019-02-05T13:32:36.062Z,101485.69
2019-02-05T13:35:03.253Z,101482.54
2019-02-05T13:37:30.086Z,101490.53
2019-02-05T13:39:56.930Z,101490.92
2019-02-05T13:42:23.753Z,101487.33
2019-02-05T13:44:50.606Z,101498.23
2019-02-05T13:47:17.466Z,101491.41
2019-02-05T13:49:44.351Z,101494.74
2019-02-05T13:52:11.150Z,101493.23
2019-02-05T13:54:38.003Z,101505.19
2019-02-05T13:57:04.861Z,101505.50
2019-02-05T13:59:31.714Z,101502.05
2019-02-05T14:01:58.550Z,101503.50
2019-02-05T14:04:25.432Z,101502.44
2019-02-05T14:06:52.302Z,101495.22
2019-02-05T14:09:19.146Z,101504.28
2019-02-05T14:11:45.971Z,101508.18
2019-02-05T14:14:12.818Z,101509.67
2019-02-05T14:16:39.669Z,101501.78
2019-02-05T14:19:06.522Z,101496.03
2019-02-05T14:21:33.370Z,101497.80
2019-02-05T14:24:00.322Z,101496.97
2019-02-05T14:26:27.046Z,101489.34
2019-02-05T14:28:53.910Z,101491.86
2019-02-05T14:31:31.028Z,101493.05
2019-02-05T14:33:47.694Z,101488.90
2019-02-05T14:36:14.539Z,101492.61
2019-02-05T14:38:41.383Z,101486.84
2019-02-05T14:41:08.213Z,101487.04
2019-02-05T14:43:35.063Z,101490.75
2019-02-05T14:46:02.000Z,101490.09
2019-02-05T14:48:28.953Z,101496.73
2019-02-05T14:50:55.898Z,101489.80
2019-02-05T14:53:22.833Z,101495.47
2019-02-05T14:55:49.815Z,101491.31
2019-02-05T14:58:17.079Z,101492.88
2019-02-05T15:00:43.933Z,101496.05
2019-02-05T15:03:11.706Z,101494.02
2019-02-05T15:05:39.258Z,101499.73
2019-02-05T15:08:06.301Z,101498.27
2019-02-05T15:10:33.159Z,101502.70
2019-02-05T15:12:59.981Z,101505.67
2019-02-05T15:15:26.874Z,101514.25
2019-02-05T15:17:53.713Z,101505.83
2019-02-05T15:20:23.275Z,101510.83
2019-02-05T15:22:50.105Z,101510.83
2019-02-05T15:25:16.954Z,101512.67
2019-02-05T15:27:43.894Z,101509.16
2019-02-05T15:30:14.058Z,101507.96
2019-02-05T15:33:02.278Z,101497.59
2019-02-05T15:35:29.154Z,101498.44
2019-02-05T15:37:56.086Z,101498.06
2019-02-05T15:40:22.925Z,101497.05
2019-02-05T15:42:49.758Z,101494.75
2019-02-05T15:45:16.650Z,101500.75
2019-02-05T15:47:43.481Z,101501.77
2019-02-05T15:50:10.354Z,101497.30
2019-02-05T15:52:37.182Z,101489.57
2019-02-05T15:55:04.701Z,101495.46
2019-02-05T15:57:31.531Z,101495.28
2019-02-05T15:59:58.393Z,101487.89
2019-02-05T16:02:25.322Z,101482.78
2019-02-05T16:04:52.182Z,101486.63
2019-02-05T16:07:19.046Z,101489.95
2019-02-05T16:09:45.894Z,101488.31
2019-02-05T16:12:12.726Z,101491.61
2019-02-05T16:14:39.602Z,101497.77
2019-02-05T16:17:06.434Z,101502.45
2019-02-05T16:19:33.287Z,101502.20
2019-02-05T16:22:00.163Z,101493.19
2019-02-05T16:24:26.986Z,101490.29
2019-02-05T16:26:53.859Z,101502.41
2019-02-05T16:29:20.682Z,101501.02
2019-02-05T16:31:47.554Z,101509.84
2019-02-05T16:34:14.390Z,101511.58
2019-02-05T16:36:41.357Z,101514.19
2019-02-05T16:39:09.149Z,101508.75
2019-02-05T16:41:36.005Z,101513.05
2019-02-05T16:44:02.834Z,101517.74
2019-02-05T16:46:29.740Z,101527.59
2019-02-05T16:48:56.569Z,101528.50
2019-02-05T16:51:23.525Z,101532.34
2019-02-05T16:53:50.450Z,101535.16
2019-02-05T16:56:17.968Z,101530.42
2019-02-05T16:58:44.350Z,101534.72
2019-02-05T17:01:11.306Z,101525.36
2019-02-05T17:03:38.163Z,101532.37
2019-02-05T17:06:05.118Z,101539.88
2019-02-05T17:08:31.942Z,101539.61
2019-02-05T17:10:58.808Z,101542.03
2019-02-05T17:13:25.706Z,101543.36
2019-02-05T17:15:52.570Z,101552.59
2019-02-05T17:18:23.850Z,101554.38
2019-02-05T17:20:46.272Z,101558.14
2019-02-05T17:23:13.105Z,101559.81
2019-02-05T17:25:40.042Z,101560.24
2019-02-05T17:28:06.889Z,101571.68
2019-02-05T17:30:35.521Z,101572.97
2019-02-05T17:33:02.414Z,101577.89
2019-02-05T17:35:29.270Z,101573.87
2019-02-05T17:37:56.242Z,101572.86
2019-02-05T17:40:23.461Z,101582.55
2019-02-05T17:42:50.553Z,101574.41
2019-02-05T17:45:19.502Z,101572.42
2019-02-05T17:47:46.358Z,101572.91
2019-02-05T17:50:13.201Z,101568.56
2019-02-05T17:52:40.058Z,101569.95
2019-02-05T17:55:07.899Z,101564.33
2019-02-05T17:57:34.771Z,101567.02
2019-02-05T18:00:01.634Z,101558.14
2019-02-05T18:02:28.485Z,101568.67
2019-02-05T18:04:55.338Z,101561.14
2019-02-05T18:07:22.237Z,101557.61
2019-02-05T18:09:49.089Z,101554.78
2019-02-05T18:12:15.970Z,101554.02
2019-02-05T18:14:42.816Z,101551.31
2019-02-05T18:17:09.677Z,101550.73
2019-02-05T18:19:36.522Z,101557.44
2019-02-05T18:22:03.399Z,101559.35
2019-02-05T18:24:30.253Z,101565.26
2019-02-05T18:26:57.111Z,101565.69
2019-02-05T18:29:23.950Z,101575.33
2019-02-05T18:31:50.812Z,101569.80
2019-02-05T18:34:17.648Z,101567.70
2019-02-05T18:36:44.530Z,101571.81
2019-02-05T18:39:11.362Z,101578.44
2019-02-05T18:41:38.321Z,101571.17
2019-02-05T18:44:05.246Z,101574.33
2019-02-05T18:46:32.180Z,101576.30
2019-02-05T18:49:05.078Z,101572.13
2019-02-05T18:51:25.879Z,101569.63
2019-02-05T18:53:52.818Z,101561.17
2019-02-05T18:56:19.661Z,101562.78
2019-02-05T18:58:46.947Z,101562.30
2019-02-05T19:01:14.188Z,101557.56
2019-02-05T19:03:41.445Z,101558.07
2019-02-05T19:06:08.789Z,101560.45
2019-02-05T19:08:35.926Z,101553.20
2019-02-05T19:11:02.801Z,101559.80
2019-02-05T19:13:29.915Z,101555.77
2019-02-05T19:15:57.145Z,101556.28
2019-02-05T19:18:24.298Z,101558.87
2019-02-05T19:20:51.391Z,101559.02
2019-02-05T19:23:18.485Z,101559.49
2019-02-05T19:26:02.561Z,101550.09
2019-02-05T19:28:32.255Z,101554.36
2019-02-05T19:31:02.347Z,101539.53
2019-02-05T19:33:29.102Z,101551.58
2019-02-05T19:35:55.940Z,101553.64
2019-02-05T19:38:22.794Z,101561.41
2019-02-05T19:40:57.114Z,101567.91
2019-02-05T19:43:16.491Z,101563.34
2019-02-05T19:45:49.807Z,101573.92
2019-02-05T19:48:21.648Z,101559.20
2019-02-05T19:50:48.488Z,101576.31
2019-02-05T19:53:15.426Z,101574.33
2019-02-05T19:55:42.275Z,101573.34
2019-02-05T19:58:09.142Z,101576.30
2019-02-05T20:00:36.022Z,101583.77
2019-02-05T20:03:02.911Z,101581.14
2019-02-05T20:05:29.746Z,101582.64
2019-02-05T20:07:56.650Z,101587.16
2019-02-05T20:10:23.486Z,101578.55
2019-02-05T20:12:50.406Z,101580.10
2019-02-05T20:15:19.654Z,101576.98
2019-02-05T20:17:44.059Z,101574.85
2019-02-05T20:20:12.294Z,101568.03
2019-02-05T20:22:39.142Z,101571.05
2019-02-05T20:25:06.902Z,101571.99
2019-02-05T20:27:34.459Z,101572.62
2019-02-05T20:30:01.316Z,101575.13
2019-02-05T20:32:28.332Z,101571.84
2019-02-05T20:34:55.011Z,101573.78
2019-02-05T20:37:21.867Z,101570.53
2019-02-05T20:39:48.821Z,101567.88
2019-02-05T20:42:15.566Z,101569.25
2019-02-05T20:44:42.410Z,101570.03
2019-02-05T20:47:09.241Z,101571.28
2019-02-05T20:49:36.098Z,101563.91
2019-02-05T20:52:03.282Z,101563.84
2019-02-05T20:54:30.133Z,101562.29
2019-02-05T20:56:56.987Z,101566.66
2019-02-05T20:59:23.854Z,101560.33
2019-02-05T21:01:50.896Z,101573.12
2019-02-05T21:04:17.690Z,101566.80
2019-02-05T21:06:44.533Z,101573.92
2019-02-05T21:09:15.059Z,101570.70
2019-02-05T21:11:41.911Z,101566.97
2019-02-05T21:14:08.750Z,101563.34
2019-02-05T21:16:35.583Z,101566.77
2019-02-05T21:19:02.427Z,101561.64
2019-02-05T21:21:29.282Z,101555.42
2019-02-05T21:23:56.131Z,101558.75
2019-02-05T21:26:22.966Z,101561.75
2019-02-05T21:28:50.375Z,101555.15
2019-02-05T21:31:16.634Z,101555.50
2019-02-05T21:33:43.455Z,101547.22
2019-02-05T21:36:10.294Z,101550.38
2019-02-05T21:38:37.134Z,101551.11
2019-02-05T21:41:03.974Z,101538.48
2019-02-05T21:43:30.809Z,101539.05
2019-02-05T21:46:00.949Z,101533.65
2019-02-05T21:48:24.528Z,101529.14
2019-02-05T21:50:51.386Z,101532.37
2019-02-05T21:53:18.210Z,101527.94
2019-02-05T21:55:45.091Z,101524.73
2019-02-05T21:58:12.545Z,101530.22
2019-02-05T22:00:38.764Z,101531.06
2019-02-05T22:03:05.931Z,101531.63
2019-02-05T22:05:32.822Z,101534.69
2019-02-05T22:07:59.611Z,101531.89
2019-02-05T22:10:26.485Z,101532.19
2019-02-05T22:12:53.305Z,101529.83
2019-02-05T22:15:20.174Z,101523.00
2019-02-05T22:17:47.000Z,101523.92
2019-02-05T22:20:15.710Z,101526.34
2019-02-05T22:22:42.546Z,101523.58
2019-02-05T22:25:12.606Z,101526.78
2019-02-05T22:27:39.450Z,101525.61
2019-02-05T22:30:10.687Z,101520.92
2019-02-05T22:32:37.509Z,101522.35
2019-02-05T22:35:04.379Z,101522.14
2019-02-05T22:37:31.203Z,101526.45
2019-02-05T22:39:58.051Z,101524.89
2019-02-05T22:42:24.874Z,101521.36
2019-02-05T22:44:51.722Z,101523.48
2019-02-05T22:47:18.555Z,101527.25
2019-02-05T22:49:45.469Z,101537.42
2019-02-05T22:52:12.306Z,101529.44
2019-02-05T22:54:39.126Z,101531.08
2019-02-05T22:57:05.979Z,101533.75
2019-02-05T22:59:32.874Z,101534.03
2019-02-05T23:02:00.346Z,101533.91
2019-02-05T23:04:50.184Z,101537.81
2019-02-05T23:07:10.214Z,101531.13
2019-02-05T23:09:44.214Z,101530.70
2019-02-05T23:12:14.550Z,101532.98
2019-02-05T23:14:41.385Z,101533.65
2019-02-05T23:17:08.238Z,101530.98
2019-02-05T23:19:35.082Z,101537.27
2019-02-05T23:22:01.925Z,101529.14
2019-02-05T23:24:28.757Z,101531.70
2019-02-05T23:26:55.594Z,101523.88
2019-02-05T23:29:22.417Z,101523.30
2019-02-05T23:31:49.262Z,101522.73
2019-02-05T23:34:16.082Z,101521.17
2019-02-05T23:36:42.918Z,101525.07
2019-02-05T23:39:09.834Z,101513.25
2019-02-05T23:41:36.678Z,101517.23
2019-02-05T23:44:03.498Z,101515.66
2019-02-05T23:46:30.350Z,101513.77
2019-02-05T23:48:57.198Z,101510.42
2019-02-05T23:51:24.050Z,101509.62
2019-02-05T23:53:50.866Z,101513.94
2019-02-05T23:56:25.439Z,101511.30
2019-02-05T23:58:44.542Z,101515.33
